Time;durP1;ratioP1;P1;durP2;ratioP2;P2;SDS_P1;SDS_P2;PMS_P1;PMS_P2;Temp;Humidity;BMP_temperature;BMP_pressure;BME280_temperature;BME280_humidity;BME280_pressure;Samples;Min_cycle;Max_cycle;Signal;HPM_P1;HPM_P2
2022/05/12 00:01:55;;;;;;;10.30;2.40;;;;;;;;;;5002805;28;20045;-66
2022/05/12 00:04:21;;;;;;;12.13;2.75;;;;;;;;;;5022909;28;20126;-67
2022/05/12 00:06:46;;;;;;;15.57;2.40;;;;;;;;;;5018792;28;20036;-68
2022/05/12 00:09:11;;;;;;;10.05;2.55;;;;;;;;;;5017895;28;20025;-66
2022/05/12 00:11:37;;;;;;;11.20;3.20;;;;;;;;;;5016370;28;20075;-66
2022/05/12 00:14:02;;;;;;;15.88;2.70;;;;;;;;;;5021988;28;20029;-66
2022/05/12 00:16:27;;;;;;;9.48;3.17;;;;;;;;;;5022240;28;20036;-67
2022/05/12 00:18:52;;;;;;;7.45;2.78;;;;;;;;;;5019496;28;20381;-66
2022/05/12 00:21:18;;;;;;;12.13;2.78;;;;;;;;;;5003538;28;20022;-67
2022/05/12 00:23:56;;;;;;;8.70;2.40;;;;;;;;;;5021691;28;20068;-67
2022/05/12 00:26:21;;;;;;;9.95;2.50;;;;;;;;;;5023017;28;20232;-65
2022/05/12 00:28:46;;;;;;;11.57;2.47;;;;;;;;;;5024172;28;20511;-67
2022/05/12 00:31:11;;;;;;;8.05;2.30;;;;;;;;;;5024264;28;20022;-66
2022/05/12 00:33:37;;;;;;;6.95;2.10;;;;;;;;;;5024008;28;20026;-67
2022/05/12 00:36:02;;;;;;;4.85;1.85;;;;;;;;;;5024270;28;20033;-66
2022/05/12 00:38:28;;;;;;;8.10;2.03;;;;;;;;;;5023731;28;20479;-66
2022/05/12 00:40:53;;;;;;;5.15;2.00;;;;;;;;;;5024568;28;20283;-67
2022/05/12 00:43:37;;;;;;;6.40;2.17;;;;;;;;;;5022119;28;20040;-68
2022/05/12 00:46:07;;;;;;;9.30;2.17;;;;;;;;;;5024030;28;20022;-67
2022/05/12 00:48:32;;;;;;;8.07;2.00;;;;;;;;;;5024419;28;20485;-66
2022/05/12 00:50:58;;;;;;;8.02;2.30;;;;;;;;;;5004952;28;20210;-65
2022/05/12 00:53:23;;;;;;;7.68;2.33;;;;;;;;;;5023644;28;20169;-67
2022/05/12 00:55:50;;;;;;;9.45;2.63;;;;;;;;;;5023816;28;20036;-67
2022/05/12 00:58:17;;;;;;;12.57;2.63;;;;;;;;;;5021752;28;20472;-66
2022/05/12 01:00:43;;;;;;;12.18;2.72;;;;;;;;;;5025397;28;20021;-66
2022/05/12 01:03:16;;;;;;;7.70;2.40;;;;;;;;;;5025985;28;20014;-68
2022/05/12 01:05:42;;;;;;;4.45;2.70;;;;;;;;;;5021818;28;20026;-66
2022/05/12 01:08:12;;;;;;;8.05;2.38;;;;;;;;;;5022339;28;20037;-67
2022/05/12 01:10:41;;;;;;;9.38;2.60;;;;;;;;;;5026008;28;20340;-66
2022/05/12 01:13:06;;;;;;;9.88;2.03;;;;;;;;;;5022896;28;20506;-67
2022/05/12 01:15:32;;;;;;;8.40;2.30;;;;;;;;;;5025742;28;20121;-66
2022/05/12 01:18:06;;;;;;;6.75;2.30;;;;;;;;;;5006408;28;20025;-67
2022/05/12 01:20:33;;;;;;;14.32;2.45;;;;;;;;;;5026597;28;20097;-66
2022/05/12 01:23:09;;;;;;;9.35;2.45;;;;;;;;;;5024391;28;20439;-67
2022/05/12 01:25:39;;;;;;;12.50;2.88;;;;;;;;;;5024562;28;20013;-66
2022/05/12 01:28:04;;;;;;;9.27;2.58;;;;;;;;;;5004302;28;20043;-67
2022/05/12 01:30:30;;;;;;;9.05;3.22;;;;;;;;;;5025334;28;20344;-67
2022/05/12 01:32:55;;;;;;;11.48;2.88;;;;;;;;;;5007169;28;20039;-67
2022/05/12 01:35:21;;;;;;;10.38;2.97;;;;;;;;;;5025799;28;20058;-65
2022/05/12 01:37:47;;;;;;;8.68;2.67;;;;;;;;;;5022370;28;20021;-66
2022/05/12 01:40:14;;;;;;;11.32;3.50;;;;;;;;;;5022814;28;20099;-68
2022/05/12 01:42:41;;;;;;;9.70;2.65;;;;;;;;;;5023890;28;20040;-67
2022/05/12 01:45:07;;;;;;;16.40;3.53;;;;;;;;;;5023441;28;20021;-66
2022/05/12 01:47:34;;;;;;;10.80;3.80;;;;;;;;;;5024877;28;20488;-66
2022/05/12 01:49:59;;;;;;;12.65;4.32;;;;;;;;;;5024845;28;20013;-66
2022/05/12 01:52:24;;;;;;;11.07;4.15;;;;;;;;;;5024971;28;20120;-67
2022/05/12 01:54:49;;;;;;;12.20;4.03;;;;;;;;;;5022001;28;20534;-66
2022/05/12 01:57:15;;;;;;;16.55;4.55;;;;;;;;;;5020982;28;20041;-66
2022/05/12 01:59:41;;;;;;;14.00;4.50;;;;;;;;;;5025438;28;20524;-67
2022/05/12 02:02:07;;;;;;;11.55;4.85;;;;;;;;;;5022007;28;20021;-67
2022/05/12 02:04:32;;;;;;;10.32;4.93;;;;;;;;;;5024739;28;20025;-66
2022/05/12 02:06:57;;;;;;;9.57;4.20;;;;;;;;;;5005204;28;20018;-67
2022/05/12 02:09:23;;;;;;;12.05;4.90;;;;;;;;;;5022757;28;20033;-67
2022/05/12 02:11:48;;;;;;;11.00;3.88;;;;;;;;;;5019190;28;20108;-67
2022/05/12 02:14:14;;;;;;;14.48;5.63;;;;;;;;;;5008302;28;20396;-66
2022/05/12 02:16:40;;;;;;;13.52;4.68;;;;;;;;;;5025346;28;20573;-66
2022/05/12 02:19:06;;;;;;;12.02;5.45;;;;;;;;;;5023491;28;20044;-67
2022/05/12 02:21:31;;;;;;;10.75;5.43;;;;;;;;;;5025693;28;20029;-66
2022/05/12 02:23:57;;;;;;;12.93;5.43;;;;;;;;;;5021904;28;20097;-66
2022/05/12 02:26:22;;;;;;;12.65;5.03;;;;;;;;;;5020170;28;20412;-67
2022/05/12 02:28:48;;;;;;;14.90;5.32;;;;;;;;;;5022913;28;20025;-66
2022/05/12 02:31:13;;;;;;;9.13;5.63;;;;;;;;;;5022563;28;20022;-67
2022/05/12 02:33:38;;;;;;;15.13;5.45;;;;;;;;;;5023183;28;20036;-68
2022/05/12 02:36:04;;;;;;;11.02;5.32;;;;;;;;;;5020905;28;20275;-67
2022/05/12 02:38:29;;;;;;;12.98;5.72;;;;;;;;;;5024279;28;20052;-66
2022/05/12 02:40:55;;;;;;;12.25;4.63;;;;;;;;;;5021222;28;20029;-66
2022/05/12 02:43:23;;;;;;;12.98;5.55;;;;;;;;;;5021936;28;20361;-66
2022/05/12 02:45:51;;;;;;;12.25;5.25;;;;;;;;;;5022272;28;20052;-66
2022/05/12 02:48:21;;;;;;;12.82;4.93;;;;;;;;;;5021710;28;20476;-67
2022/05/12 02:50:47;;;;;;;9.05;4.88;;;;;;;;;;5021757;28;20071;-67
2022/05/12 02:53:13;;;;;;;15.00;5.47;;;;;;;;;;5020555;28;20028;-67
2022/05/12 02:55:39;;;;;;;9.82;5.03;;;;;;;;;;5022681;28;20029;-67
2022/05/12 02:58:04;;;;;;;11.25;5.10;;;;;;;;;;5002585;28;20116;-67
2022/05/12 03:00:31;;;;;;;12.82;4.60;;;;;;;;;;5026124;28;20125;-66
2022/05/12 03:02:56;;;;;;;11.13;5.10;;;;;;;;;;5022547;28;20028;-67
2022/05/12 03:05:22;;;;;;;12.27;4.72;;;;;;;;;;5025294;28;20021;-67
2022/05/12 03:07:47;;;;;;;11.77;4.85;;;;;;;;;;5024160;28;20025;-67
2022/05/12 03:10:13;;;;;;;10.07;4.85;;;;;;;;;;5023213;28;20033;-66
2022/05/12 03:12:38;;;;;;;13.80;5.45;;;;;;;;;;5020938;28;20099;-65
2022/05/12 03:15:04;;;;;;;12.82;5.82;;;;;;;;;;5023683;28;20022;-66
2022/05/12 03:17:29;;;;;;;13.63;5.43;;;;;;;;;;5024312;28;20171;-66
2022/05/12 03:19:54;;;;;;;15.52;4.93;;;;;;;;;;5023570;28;20447;-67
2022/05/12 03:22:20;;;;;;;14.30;5.30;;;;;;;;;;5025275;28;20017;-67
2022/05/12 03:24:45;;;;;;;17.27;5.45;;;;;;;;;;5005511;28;20090;-67
2022/05/12 03:27:10;;;;;;;11.32;5.18;;;;;;;;;;5020388;28;20025;-67
2022/05/12 03:29:36;;;;;;;13.10;4.57;;;;;;;;;;5007079;28;20432;-67
2022/05/12 03:32:03;;;;;;;12.35;4.60;;;;;;;;;;5024678;28;20033;-67
2022/05/12 03:34:30;;;;;;;13.35;5.35;;;;;;;;;;5023760;28;20080;-66
2022/05/12 03:36:56;;;;;;;18.35;4.82;;;;;;;;;;5021964;28;20118;-66
2022/05/12 03:39:21;;;;;;;10.32;5.05;;;;;;;;;;5022268;28;20452;-67
2022/05/12 03:41:47;;;;;;;13.80;4.90;;;;;;;;;;5019915;28;20048;-66
2022/05/12 03:46:56;;;;;;;14.93;5.30;;;;;;;;;;5023377;28;20094;-66
2022/05/12 03:49:21;;;;;;;14.75;4.78;;;;;;;;;;5024291;28;20116;-67
2022/05/12 03:51:47;;;;;;;12.07;4.53;;;;;;;;;;5023370;28;20029;-66
2022/05/12 03:54:12;;;;;;;9.88;5.03;;;;;;;;;;5020466;28;20167;-67
2022/05/12 03:56:37;;;;;;;13.13;4.97;;;;;;;;;;5018673;28;20108;-68
2022/05/12 03:59:03;;;;;;;12.18;4.97;;;;;;;;;;5021886;28;20036;-67
2022/05/12 04:01:29;;;;;;;15.93;5.07;;;;;;;;;;5022655;28;20018;-66
2022/05/12 04:03:55;;;;;;;11.70;4.85;;;;;;;;;;5022520;28;20481;-67
2022/05/12 04:06:20;;;;;;;11.63;5.38;;;;;;;;;;5020991;28;20013;-65
2022/05/12 04:08:46;;;;;;;12.50;4.97;;;;;;;;;;5020147;28;20018;-67
2022/05/12 04:11:12;;;;;;;10.35;5.00;;;;;;;;;;5015941;28;20025;-67
2022/05/12 04:13:37;;;;;;;9.23;4.80;;;;;;;;;;5023110;28;20021;-66
2022/05/12 04:16:03;;;;;;;10.05;4.65;;;;;;;;;;5020579;28;20087;-66
2022/05/12 04:18:28;;;;;;;10.60;4.90;;;;;;;;;;5023199;28;20029;-68
2022/05/12 04:20:54;;;;;;;9.93;4.90;;;;;;;;;;5020903;28;20130;-67
2022/05/12 04:23:20;;;;;;;10.13;5.30;;;;;;;;;;5018666;28;20057;-67
2022/05/12 04:25:46;;;;;;;9.82;5.00;;;;;;;;;;5020889;28;20053;-67
2022/05/12 04:28:11;;;;;;;10.40;4.88;;;;;;;;;;5000121;28;20029;-68
2022/05/12 04:30:38;;;;;;;9.48;5.20;;;;;;;;;;5022255;28;20119;-67
2022/05/12 04:35:47;;;;;;;13.98;5.50;;;;;;;;;;5021555;28;20052;-67
2022/05/12 04:38:13;;;;;;;10.32;4.63;;;;;;;;;;5018046;28;20033;-67
2022/05/12 04:40:39;;;;;;;16.52;5.15;;;;;;;;;;5020863;28;20030;-66
2022/05/12 04:43:04;;;;;;;14.20;5.18;;;;;;;;;;5016575;28;20484;-67
2022/05/12 04:45:31;;;;;;;8.85;4.28;;;;;;;;;;5022601;28;20032;-66
2022/05/12 04:47:57;;;;;;;12.93;4.90;;;;;;;;;;5020217;28;20116;-67
2022/05/12 04:50:27;;;;;;;10.57;4.28;;;;;;;;;;5019688;28;20105;-67
2022/05/12 04:52:52;;;;;;;11.90;4.32;;;;;;;;;;5022832;28;20018;-67
2022/05/12 04:55:18;;;;;;;15.98;4.72;;;;;;;;;;5019731;28;20030;-67
2022/05/12 04:57:44;;;;;;;9.98;4.60;;;;;;;;;;5019919;28;20104;-67
2022/05/12 05:00:14;;;;;;;11.43;4.18;;;;;;;;;;5021133;28;20083;-67
2022/05/12 05:02:40;;;;;;;10.25;3.88;;;;;;;;;;5022566;28;20075;-67
2022/05/12 05:05:06;;;;;;;11.30;4.20;;;;;;;;;;5022036;28;20025;-66
2022/05/12 05:07:31;;;;;;;11.68;4.70;;;;;;;;;;5023304;28;20025;-66
2022/05/12 05:09:56;;;;;;;8.95;3.83;;;;;;;;;;5022467;28;20334;-66
2022/05/12 05:12:22;;;;;;;12.77;4.00;;;;;;;;;;5020247;28;20431;-67
2022/05/12 05:14:47;;;;;;;10.63;3.42;;;;;;;;;;5026546;28;20527;-67
2022/05/12 05:17:12;;;;;;;8.27;3.75;;;;;;;;;;5026146;28;20045;-68
2022/05/12 05:19:38;;;;;;;9.50;3.78;;;;;;;;;;5025668;28;20117;-67
2022/05/12 05:22:04;;;;;;;9.55;3.22;;;;;;;;;;5024953;28;20108;-68
2022/05/12 05:24:30;;;;;;;12.25;4.25;;;;;;;;;;5011397;28;20364;-67
2022/05/12 05:26:55;;;;;;;9.43;3.72;;;;;;;;;;5022219;28;20212;-67
2022/05/12 05:29:20;;;;;;;8.88;3.72;;;;;;;;;;5023006;28;20332;-67
2022/05/12 05:31:46;;;;;;;10.95;3.63;;;;;;;;;;5024328;28;20036;-68
2022/05/12 05:34:12;;;;;;;9.43;3.70;;;;;;;;;;5023687;28;20022;-66
2022/05/12 05:36:42;;;;;;;6.57;3.15;;;;;;;;;;5021375;28;20025;-67
2022/05/12 05:39:07;;;;;;;8.95;3.63;;;;;;;;;;5023200;28;20480;-67
2022/05/12 05:41:35;;;;;;;7.25;3.05;;;;;;;;;;5020939;28;20022;-67
2022/05/12 05:44:01;;;;;;;6.65;3.35;;;;;;;;;;5025911;28;20018;-66
2022/05/12 05:46:26;;;;;;;6.53;3.35;;;;;;;;;;5021625;28;20838;-67
2022/05/12 05:48:52;;;;;;;9.20;3.30;;;;;;;;;;5024460;28;20036;-68
2022/05/12 05:54:01;;;;;;;6.00;2.92;;;;;;;;;;5024898;28;20032;-67
2022/05/12 05:56:26;;;;;;;9.30;3.22;;;;;;;;;;5018738;28;20387;-65
2022/05/12 05:58:51;;;;;;;7.38;3.67;;;;;;;;;;5023517;28;20033;-67
2022/05/12 06:01:18;;;;;;;5.80;2.97;;;;;;;;;;5021905;28;20447;-66
2022/05/12 06:03:43;;;;;;;10.90;3.05;;;;;;;;;;5023982;28;20029;-67
2022/05/12 06:06:11;;;;;;;7.95;3.03;;;;;;;;;;5021999;28;20341;-66
2022/05/12 06:08:37;;;;;;;7.35;3.03;;;;;;;;;;5021839;28;20100;-67
2022/05/12 06:11:04;;;;;;;7.22;2.70;;;;;;;;;;5021055;28;20457;-65
2022/05/12 06:13:30;;;;;;;7.80;2.63;;;;;;;;;;5020874;28;20336;-67
2022/05/12 06:15:55;;;;;;;4.80;2.40;;;;;;;;;;5022907;28;20064;-66
2022/05/12 06:18:20;;;;;;;7.38;2.70;;;;;;;;;;5020663;28;20436;-66
2022/05/12 06:20:47;;;;;;;6.60;2.63;;;;;;;;;;5020030;28;20421;-67
2022/05/12 06:23:13;;;;;;;6.72;2.80;;;;;;;;;;5021907;28;20048;-67
2022/05/12 06:25:39;;;;;;;8.75;3.03;;;;;;;;;;5023354;28;20464;-67
2022/05/12 06:28:05;;;;;;;7.95;2.85;;;;;;;;;;5002084;28;20401;-66
2022/05/12 06:30:31;;;;;;;8.52;2.30;;;;;;;;;;5020742;28;20045;-68
2022/05/12 06:32:56;;;;;;;10.90;2.55;;;;;;;;;;5022081;28;20115;-67
2022/05/12 06:35:22;;;;;;;7.70;2.88;;;;;;;;;;5021784;28;20115;-66
2022/05/12 06:37:48;;;;;;;8.25;3.05;;;;;;;;;;5024049;28;20365;-67
2022/05/12 06:40:13;;;;;;;8.27;2.60;;;;;;;;;;5023083;28;20033;-66
2022/05/12 06:42:41;;;;;;;5.35;3.08;;;;;;;;;;5027389;28;20018;-67
2022/05/12 06:45:08;;;;;;;7.10;3.00;;;;;;;;;;5025193;28;20540;-67
2022/05/12 06:47:33;;;;;;;5.35;2.50;;;;;;;;;;5020896;28;20079;-67
2022/05/12 06:50:01;;;;;;;8.00;2.35;;;;;;;;;;5022798;28;20440;-67
2022/05/12 06:52:26;;;;;;;8.00;2.40;;;;;;;;;;5021035;28;20036;-66
2022/05/12 06:54:52;;;;;;;5.80;2.55;;;;;;;;;;5022585;28;20372;-66
2022/05/12 06:57:21;;;;;;;6.70;2.47;;;;;;;;;;5018355;28;20399;-76
2022/05/12 06:59:46;;;;;;;6.00;2.20;;;;;;;;;;5023150;28;20372;-67
2022/05/12 07:02:13;;;;;;;5.82;2.30;;;;;;;;;;5023469;28;20021;-66
2022/05/12 07:04:39;;;;;;;5.65;1.95;;;;;;;;;;5021819;28;20021;-67
2022/05/12 07:07:05;;;;;;;5.97;2.25;;;;;;;;;;5021169;28;20025;-67
2022/05/12 07:09:31;;;;;;;5.55;2.33;;;;;;;;;;5020510;28;20391;-67
2022/05/12 07:11:56;;;;;;;9.15;2.95;;;;;;;;;;5019584;28;20044;-66
2022/05/12 07:14:22;;;;;;;7.22;2.58;;;;;;;;;;5019569;28;20345;-66
2022/05/12 07:16:47;;;;;;;10.27;3.05;;;;;;;;;;5022843;28;20034;-67
2022/05/12 07:19:15;;;;;;;7.72;2.83;;;;;;;;;;5022327;28;20072;-67
2022/05/12 07:27:11;;;;;;;9.57;3.10;;;;;;;;;;5019513;28;20476;-67
2022/05/12 07:29:37;;;;;;;6.95;2.40;;;;;;;;;;5002576;28;20033;-66
2022/05/12 07:32:02;;;;;;;6.60;2.42;;;;;;;;;;5022540;28;20094;-67
2022/05/12 07:34:28;;;;;;;5.90;2.70;;;;;;;;;;5018666;28;20060;-67
2022/05/12 07:36:53;;;;;;;10.00;2.47;;;;;;;;;;5022300;28;20479;-68
2022/05/12 07:39:22;;;;;;;6.78;2.55;;;;;;;;;;5017550;28;20388;-66
2022/05/12 07:41:48;;;;;;;6.22;1.90;;;;;;;;;;5018206;28;20014;-67
2022/05/12 07:44:14;;;;;;;6.60;2.20;;;;;;;;;;5022924;28;20092;-68
2022/05/12 07:46:40;;;;;;;5.78;2.50;;;;;;;;;;5018623;28;20033;-67
2022/05/12 07:49:05;;;;;;;7.85;2.35;;;;;;;;;;5021882;28;20036;-67
2022/05/12 07:51:31;;;;;;;6.05;2.30;;;;;;;;;;5018002;28;20103;-66
2022/05/12 07:53:56;;;;;;;7.45;1.88;;;;;;;;;;5021194;28;20026;-66
2022/05/12 07:56:25;;;;;;;3.97;1.90;;;;;;;;;;5018142;28;20533;-68
2022/05/12 07:58:50;;;;;;;5.32;1.90;;;;;;;;;;5020881;28;20133;-65
2022/05/12 08:01:17;;;;;;;4.43;2.33;;;;;;;;;;5020198;28;20289;-66
2022/05/12 08:03:44;;;;;;;5.28;1.95;;;;;;;;;;5020402;28;20014;-67
2022/05/12 08:06:09;;;;;;;8.73;2.42;;;;;;;;;;5022170;28;20325;-67
2022/05/12 08:08:35;;;;;;;7.15;1.95;;;;;;;;;;5018306;28;20430;-66
2022/05/12 08:11:05;;;;;;;4.47;1.50;;;;;;;;;;5019654;28;20688;-65
2022/05/12 08:13:32;;;;;;;7.13;2.28;;;;;;;;;;5021098;28;20087;-66
2022/05/12 08:15:58;;;;;;;7.05;1.90;;;;;;;;;;5021494;28;20017;-68
2022/05/12 08:18:24;;;;;;;5.78;1.65;;;;;;;;;;5018758;28;20088;-65
2022/05/12 08:20:50;;;;;;;5.05;1.58;;;;;;;;;;5021184;28;20040;-67
2022/05/12 08:23:16;;;;;;;5.35;1.75;;;;;;;;;;5018265;28;20018;-66
2022/05/12 08:25:43;;;;;;;4.90;1.98;;;;;;;;;;5017924;28;20611;-65
2022/05/12 08:28:09;;;;;;;5.43;1.77;;;;;;;;;;5020178;28;20156;-65
2022/05/12 08:30:34;;;;;;;5.60;1.65;;;;;;;;;;5021397;28;20037;-66
2022/05/12 08:33:01;;;;;;;11.60;2.20;;;;;;;;;;5021096;28;20121;-67
2022/05/12 08:35:27;;;;;;;1.95;1.27;;;;;;;;;;5015455;28;20456;-66
2022/05/12 08:37:52;;;;;;;4.53;1.40;;;;;;;;;;5021721;28;20037;-66
2022/05/12 08:40:40;;;;;;;4.10;1.60;;;;;;;;;;5021868;28;20028;-65
2022/05/12 08:43:13;;;;;;;3.92;1.50;;;;;;;;;;5018271;28;20026;-67
2022/05/12 08:45:38;;;;;;;4.38;1.50;;;;;;;;;;5002791;28;20576;-66
2022/05/12 08:48:04;;;;;;;4.50;1.27;;;;;;;;;;5026656;28;20567;-67
2022/05/12 08:50:31;;;;;;;2.85;1.30;;;;;;;;;;5025910;28;20418;-67
2022/05/12 08:53:02;;;;;;;4.40;1.33;;;;;;;;;;5025343;28;20043;-67
2022/05/12 08:55:31;;;;;;;3.00;1.35;;;;;;;;;;5023723;28;20036;-66
2022/05/12 08:57:56;;;;;;;5.20;1.63;;;;;;;;;;5022789;28;20021;-68
2022/05/12 09:00:22;;;;;;;3.65;1.48;;;;;;;;;;5025483;28;20460;-68
2022/05/12 09:03:03;;;;;;;7.25;2.03;;;;;;;;;;5022323;28;20037;-67
2022/05/12 09:05:31;;;;;;;4.60;1.80;;;;;;;;;;5023417;28;20013;-67
2022/05/12 09:08:07;;;;;;;4.28;1.33;;;;;;;;;;5022743;28;20053;-67
2022/05/12 09:10:39;;;;;;;4.68;1.45;;;;;;;;;;5022263;28;20550;-67
2022/05/12 09:13:05;;;;;;;6.63;1.50;;;;;;;;;;5021531;28;20025;-68
2022/05/12 09:15:31;;;;;;;5.32;1.73;;;;;;;;;;5022674;28;20177;-68
2022/05/12 09:17:58;;;;;;;3.83;1.50;;;;;;;;;;5023703;28;20084;-66
2022/05/12 09:20:25;;;;;;;4.93;1.83;;;;;;;;;;5021990;28;20045;-65
2022/05/12 09:22:50;;;;;;;4.28;1.58;;;;;;;;;;5020158;28;20017;-67
2022/05/12 09:25:31;;;;;;;6.20;1.73;;;;;;;;;;5021558;28;20132;-69
2022/05/12 09:27:58;;;;;;;3.13;1.40;;;;;;;;;;5019756;28;20108;-66
2022/05/12 09:30:36;;;;;;;6.25;1.52;;;;;;;;;;5021690;28;20091;-66
2022/05/12 09:33:02;;;;;;;4.32;1.33;;;;;;;;;;5023303;28;20033;-67
2022/05/12 09:35:28;;;;;;;6.22;1.35;;;;;;;;;;5005015;28;20049;-68
2022/05/12 09:37:54;;;;;;;4.38;1.75;;;;;;;;;;5023061;28;20508;-68
2022/05/12 09:40:21;;;;;;;3.83;1.73;;;;;;;;;;5022952;28;20044;-67
2022/05/12 09:42:56;;;;;;;4.03;1.35;;;;;;;;;;5017655;28;20021;-66
2022/05/12 09:45:28;;;;;;;3.95;1.30;;;;;;;;;;5025516;28;20021;-67
2022/05/12 09:48:12;;;;;;;5.28;1.42;;;;;;;;;;5021482;28;20021;-67
2022/05/12 09:50:37;;;;;;;2.58;1.23;;;;;;;;;;5024091;28;20127;-67
2022/05/12 09:53:06;;;;;;;3.72;1.60;;;;;;;;;;5024077;28;20029;-66
2022/05/12 09:55:44;;;;;;;3.80;1.60;;;;;;;;;;5021504;28;20243;-67
2022/05/12 09:58:15;;;;;;;3.15;1.30;;;;;;;;;;5022331;28;20025;-68
2022/05/12 10:00:44;;;;;;;3.78;1.33;;;;;;;;;;5023410;28;20244;-67
2022/05/12 10:09:04;;;;;;;6.07;1.40;;;;;;;;;;5022222;28;20438;-68
2022/05/12 10:11:31;;;;;;;3.55;1.40;;;;;;;;;;5019835;28;20481;-67
2022/05/12 10:13:57;;;;;;;3.63;1.40;;;;;;;;;;5021801;28;20444;-67
2022/05/12 10:16:26;;;;;;;3.95;1.35;;;;;;;;;;5026817;28;20395;-68
2022/05/12 10:19:05;;;;;;;4.65;1.38;;;;;;;;;;5023043;28;20017;-68
2022/05/12 10:21:42;;;;;;;2.22;1.30;;;;;;;;;;5023570;28;20049;-68
2022/05/12 10:24:16;;;;;;;4.75;1.60;;;;;;;;;;5023106;28;20329;-68
2022/05/12 10:27:01;;;;;;;3.78;1.48;;;;;;;;;;5017537;28;20128;-68
2022/05/12 10:29:39;;;;;;;2.67;1.35;;;;;;;;;;5024098;28;20033;-68
2022/05/12 10:32:24;;;;;;;5.00;1.35;;;;;;;;;;5025007;28;20025;-68
2022/05/12 10:34:52;;;;;;;3.55;1.40;;;;;;;;;;5023415;28;20877;-67
2022/05/12 10:37:17;;;;;;;4.28;1.38;;;;;;;;;;5025774;28;20036;-67
2022/05/12 10:39:51;;;;;;;6.10;1.55;;;;;;;;;;5020093;28;20033;-68
2022/05/12 10:42:17;;;;;;;5.07;1.50;;;;;;;;;;5019796;28;20119;-67
2022/05/12 10:45:01;;;;;;;2.10;1.10;;;;;;;;;;5022319;28;20097;-68
2022/05/12 10:47:41;;;;;;;3.03;1.33;;;;;;;;;;5022591;28;20251;-68
2022/05/12 10:50:12;;;;;;;3.28;1.35;;;;;;;;;;5022431;28;20033;-65
2022/05/12 10:52:49;;;;;;;4.90;1.50;;;;;;;;;;5019067;28;20451;-67
2022/05/12 10:55:18;;;;;;;2.38;1.02;;;;;;;;;;5020587;28;20029;-67
2022/05/12 10:57:56;;;;;;;3.15;1.35;;;;;;;;;;5015748;28;20018;-68
2022/05/12 11:00:39;;;;;;;1.95;1.27;;;;;;;;;;5023448;28;20022;-67
2022/05/12 11:03:08;;;;;;;3.28;1.35;;;;;;;;;;5021722;28;20018;-69
2022/05/12 11:05:38;;;;;;;5.03;1.30;;;;;;;;;;5021981;28;20468;-66
2022/05/12 11:08:13;;;;;;;2.90;1.38;;;;;;;;;;5021063;28;20055;-67
2022/05/12 11:10:44;;;;;;;3.30;1.10;;;;;;;;;;5021173;28;20113;-68
2022/05/12 11:13:17;;;;;;;2.95;1.20;;;;;;;;;;5019967;28;20131;-67
2022/05/12 11:15:48;;;;;;;4.45;1.30;;;;;;;;;;5020953;28;20060;-67
2022/05/12 11:18:18;;;;;;;3.22;1.10;;;;;;;;;;5023881;28;20416;-67
2022/05/12 11:20:48;;;;;;;1.20;0.95;;;;;;;;;;5023191;28;20021;-67
2022/05/12 11:23:32;;;;;;;3.65;1.15;;;;;;;;;;5021190;28;20024;-67
2022/05/12 11:26:03;;;;;;;2.60;1.15;;;;;;;;;;5020233;28;20472;-67
2022/05/12 11:31:43;;;;;;;2.35;1.35;;;;;;;;;;5022846;28;20095;-66
2022/05/12 11:34:08;;;;;;;;;;;;;;;;;;5022180;28;20056;-67
2022/05/12 11:36:38;;;;;;;3.20;1.20;;;;;;;;;;5022835;28;20392;-67
2022/05/12 11:39:24;;;;;;;3.58;1.50;;;;;;;;;;5020674;28;20122;-67
2022/05/12 11:42:04;;;;;;;3.00;1.25;;;;;;;;;;5019549;28;20018;-66
2022/05/12 11:44:34;;;;;;;3.25;1.40;;;;;;;;;;5024049;28;20017;-67
2022/05/12 11:47:03;;;;;;;1.98;0.85;;;;;;;;;;5021911;28;20086;-68
2022/05/12 11:49:28;;;;;;;2.95;1.00;;;;;;;;;;5024825;28;20022;-67
2022/05/12 11:52:12;;;;;;;2.50;0.87;;;;;;;;;;5021938;28;20022;-67
2022/05/12 11:54:49;;;;;;;2.67;1.13;;;;;;;;;;5021078;28;20346;-67
2022/05/12 11:57:22;;;;;;;2.05;1.02;;;;;;;;;;5017489;28;20020;-67
2022/05/12 11:59:49;;;;;;;4.25;1.10;;;;;;;;;;5023373;28;20092;-67
2022/05/12 12:02:33;;;;;;;4.43;1.27;;;;;;;;;;5023451;28;20523;-67
2022/05/12 12:04:58;;;;;;;3.50;1.10;;;;;;;;;;5021406;28;20049;-67
2022/05/12 12:07:33;;;;;;;3.00;1.10;;;;;;;;;;5023671;28;20040;-67
2022/05/12 12:10:04;;;;;;;5.28;1.27;;;;;;;;;;5018396;28;20543;-67
2022/05/12 12:12:45;;;;;;;3.25;1.20;;;;;;;;;;5019035;28;20079;-68
2022/05/12 12:15:16;;;;;;;3.33;1.20;;;;;;;;;;5023564;28;20422;-66
2022/05/12 12:17:44;;;;;;;2.28;1.08;;;;;;;;;;5021965;28;20171;-68
2022/05/12 12:20:11;;;;;;;3.78;1.10;;;;;;;;;;5023717;28;20379;-66
2022/05/12 12:22:48;;;;;;;5.40;1.40;;;;;;;;;;5020429;28;20320;-66
2022/05/12 12:25:19;;;;;;;1.75;1.00;;;;;;;;;;5021492;28;20095;-67
2022/05/12 12:27:58;;;;;;;2.13;1.15;;;;;;;;;;5018005;28;20018;-67
2022/05/12 12:30:27;;;;;;;5.00;1.50;;;;;;;;;;5023504;28;20484;-67
2022/05/12 12:33:07;;;;;;;4.30;1.23;;;;;;;;;;5020332;28;20017;-67
2022/05/12 12:35:47;;;;;;;2.90;1.27;;;;;;;;;;5023540;28;20053;-67
2022/05/12 12:38:33;;;;;;;3.92;1.30;;;;;;;;;;5020172;28;20030;-67
2022/05/12 12:41:00;;;;;;;3.55;1.50;;;;;;;;;;5017845;28;20401;-67
2022/05/12 12:43:29;;;;;;;6.90;1.35;;;;;;;;;;5020887;28;20486;-67
2022/05/12 12:45:54;;;;;;;5.18;1.30;;;;;;;;;;5021354;28;20033;-65
2022/05/12 12:48:24;;;;;;;3.25;1.40;;;;;;;;;;5025946;28;20543;-65
2022/05/12 12:50:52;;;;;;;4.10;1.50;;;;;;;;;;5018836;28;20045;-67
2022/05/12 12:56:30;;;;;;;4.82;1.50;;;;;;;;;;5019738;28;20091;-66
2022/05/12 12:56:30;;;;;;;6.88;2.55;;;;;;;;;;5014987;28;20068;-68
2022/05/12 12:58:56;;;;;;;6.90;1.58;;;;;;;;;;5020971;28;20039;-69
2022/05/12 13:01:21;;;;;;;5.25;1.50;;;;;;;;;;5021284;28;20021;-67
2022/05/12 13:03:49;;;;;;;4.53;1.58;;;;;;;;;;5021588;28;20030;-67
2022/05/12 13:06:16;;;;;;;3.85;1.67;;;;;;;;;;5023518;28;20045;-68
2022/05/12 13:08:41;;;;;;;4.47;1.65;;;;;;;;;;5020292;28;20032;-70
2022/05/12 13:11:07;;;;;;;4.60;1.65;;;;;;;;;;5014979;28;20025;-67
2022/05/12 13:13:46;;;;;;;3.88;1.83;;;;;;;;;;5022532;28;20294;-66
2022/05/12 13:16:14;;;;;;;4.53;2.60;;;;;;;;;;5019292;28;20025;-67
2022/05/12 13:18:45;;;;;;;4.78;2.20;;;;;;;;;;5021393;28;20025;-65
2022/05/12 13:21:16;;;;;;;7.80;2.92;;;;;;;;;;5003594;28;20028;-66
2022/05/12 13:23:41;;;;;;;4.13;2.15;;;;;;;;;;5020957;28;20429;-67
2022/05/12 13:26:07;;;;;;;9.15;3.47;;;;;;;;;;5019149;28;20193;-67
2022/05/12 13:28:36;;;;;;;5.38;3.20;;;;;;;;;;5021961;28;20449;-67
2022/05/12 13:31:23;;;;;;;7.13;2.80;;;;;;;;;;5022188;28;20110;-67
2022/05/12 13:33:54;;;;;;;6.07;3.05;;;;;;;;;;5023686;28;20098;-67
2022/05/12 13:36:23;;;;;;;7.07;2.60;;;;;;;;;;5026326;28;20075;-66
2022/05/12 13:38:49;;;;;;;8.63;2.22;;;;;;;;;;5021526;28;20488;-66
2022/05/12 13:41:24;;;;;;;8.38;2.38;;;;;;;;;;5026998;28;20135;-68
2022/05/12 13:43:51;;;;;;;3.25;1.60;;;;;;;;;;5025832;28;20018;-67
2022/05/12 13:46:16;;;;;;;5.22;2.00;;;;;;;;;;5024438;28;20048;-67
2022/05/12 13:48:48;;;;;;;6.17;2.20;;;;;;;;;;5023802;28;20370;-69
2022/05/12 13:51:33;;;;;;;3.90;1.88;;;;;;;;;;5024321;28;20261;-66
2022/05/12 13:54:08;;;;;;;4.90;1.73;;;;;;;;;;5020182;28;20048;-67
2022/05/12 13:56:33;;;;;;;6.07;2.22;;;;;;;;;;5021312;28;20032;-69
2022/05/12 13:58:59;;;;;;;7.15;1.90;;;;;;;;;;5025667;28;20029;-66
2022/05/12 14:01:27;;;;;;;4.50;1.60;;;;;;;;;;5026068;28;20021;-68
2022/05/12 14:04:11;;;;;;;4.07;1.85;;;;;;;;;;5024070;28;20117;-67
2022/05/12 14:07:03;;;;;;;5.35;1.50;;;;;;;;;;5025602;28;20056;-66
2022/05/12 14:09:31;;;;;;;4.85;1.65;;;;;;;;;;5017463;28;20095;-67
2022/05/12 14:11:56;;;;;;;3.10;1.40;;;;;;;;;;5014582;28;20503;-66
2022/05/12 14:19:50;;;;;;;5.97;1.67;;;;;;;;;;5023531;28;20037;-65
2022/05/12 14:22:17;;;;;;;4.18;1.50;;;;;;;;;;5021949;28;20034;-67
2022/05/12 14:24:45;;;;;;;4.07;1.70;;;;;;;;;;5020429;28;20022;-66
2022/05/12 14:27:11;;;;;;;3.47;1.60;;;;;;;;;;5018582;28;20180;-66
2022/05/12 14:29:37;;;;;;;5.78;1.80;;;;;;;;;;5022050;28;20471;-67
2022/05/12 14:32:03;;;;;;;5.82;1.65;;;;;;;;;;5021246;28;20449;-67
2022/05/12 14:34:29;;;;;;;5.32;1.90;;;;;;;;;;5023813;28;20029;-66
2022/05/12 14:37:00;;;;;;;6.43;1.73;;;;;;;;;;5021064;28;20566;-66
2022/05/12 14:39:26;;;;;;;4.47;1.60;;;;;;;;;;5018167;28;20407;-66
2022/05/12 14:41:55;;;;;;;5.30;1.90;;;;;;;;;;5015964;28;20021;-66
2022/05/12 14:44:20;;;;;;;7.32;2.00;;;;;;;;;;5006500;28;20421;-66
2022/05/12 14:46:47;;;;;;;4.93;2.00;;;;;;;;;;5020037;28;20111;-67
2022/05/12 14:49:16;;;;;;;5.72;2.03;;;;;;;;;;5020327;28;20360;-68
2022/05/12 14:51:42;;;;;;;4.32;1.90;;;;;;;;;;5022849;28;20028;-66
2022/05/12 14:54:07;;;;;;;6.32;2.10;;;;;;;;;;5019142;28;20328;-66
2022/05/12 14:56:33;;;;;;;4.95;1.75;;;;;;;;;;5016707;28;20091;-65
2022/05/12 14:58:59;;;;;;;7.15;2.05;;;;;;;;;;5019542;28;20032;-64
2022/05/12 15:01:24;;;;;;;7.22;2.00;;;;;;;;;;5023884;28;20019;-65
2022/05/12 15:03:52;;;;;;;7.18;1.70;;;;;;;;;;5022982;28;20029;-65
2022/05/12 15:06:19;;;;;;;6.68;1.90;;;;;;;;;;5020985;28;20021;-65
2022/05/12 15:08:44;;;;;;;4.25;1.58;;;;;;;;;;5019612;28;20036;-65
2022/05/12 15:11:09;;;;;;;6.47;1.50;;;;;;;;;;5016121;28;20703;-64
2022/05/12 15:13:34;;;;;;;7.82;1.77;;;;;;;;;;5022111;28;20271;-65
2022/05/12 15:16:00;;;;;;;4.55;1.60;;;;;;;;;;5020214;28;20029;-65